Weather observations for the past three days for
Myrtle Beach International Airport
Metric (Imperial)
Date Time (edt) Wind (kph) Vis. (km) Weather Sky Cond. Temperature (ºC) Relative Humidity Wind Chill (°C) Heat Index (°C) Pressure Precipitation (cm)
Air Dwpt 6 hour altimeter (cm) sea level (mb) 1 hr 3 hr 6 hr
Max. Min.
07 14:53 W 13 16.09 Overcast BKN050 OVC070 22.8 18.3 76% 75.72 1009.5 0.03
07 13:53 W 22 G 31 16.09 Light Rain FEW050 BKN060 BKN100 23.3 16.7 24.4 21.7 67% 75.79 1010.5
07 12:53 W 13 16.09 Mostly Cloudy BKN075 23.9 17.2 66% 25 75.82 1010.7
07 11:53 S 20 16.09 Light Rain FEW070 BKN100 22.2 19.4 84% 75.72 1009.4
07 10:53 S 11 16.09 Overcast OVC120 23.3 20 82% 75.87 1011.3
07 09:53 S 19 16.09 Fair CLR 22.2 20.6 91% 75.82 1010.7
07 08:53 S 15 16.09 A Few Clouds FEW090 22.2 20 87% 75.9 1011.7
07 07:53 SW 7 16.09 Mostly Cloudy BKN120 22.2 19.4 22.8 20.6 84% 75.95 1012.6 0.03
07 06:53 SW 9 16.09 Mostly Cloudy BKN110 22.8 18.9 79% 76.02 1013.4
07 05:53 SW 13 16.09 Overcast BKN095 OVC120 22.8 20 84% 75.97 1012.7
07 04:53 S 19 16.09 Mostly Cloudy FEW090 BKN110 22.2 20.6 91% 75.92 1012.0 0.03 0.03
07 03:53 S 9 16.09 Mostly Cloudy BKN110 21.1 19.4 90% 75.92 1012.3
07 02:53 SE 11 16.09 Light Rain FEW050 BKN070 BKN100 20.6 19.4 93% 75.95 1012.6
07 01:53 NW 13 16.09 Light Rain BKN065 BKN080 21.7 20 23.9 21.7 90% 76.12 1014.8
07 00:53 SW 9 16.09 Partly Cloudy SCT120 23.3 20 82% 76.1 1014.5
06 23:53 SW 19 G 30 16.09 Fair CLR 22.2 20.6 91% 76.07 1014.0
06 22:53 S 15 16.09 Fair CLR 21.7 20 90% 76.02 1013.6
06 21:53 S 24 16.09 Fair CLR 21.7 20 90% 76.1 1014.4
06 20:53 S 22 16.09 Fair CLR 21.7 20 90% 76.1 1014.6
06 19:53 S 22 16.09 Fair CLR 22.2 20 25 22.2 87% 76.1 1014.4
06 18:53 S 30 G 39 16.09 Fair CLR 23.3 18.9 76% 76.07 1014.0
06 17:53 S 28 G 41 16.09 Fair CLR 23.9 18.9 74% 25 76.07 1014.1
06 16:53 S 30 G 43 16.09 Fair CLR 24.4 19.4 74% 25 76.07 1014.1
06 15:53 S 28 G 39 16.09 Fair CLR 23.9 18.9 74% 25 76.1 1014.3
06 14:53 S 30 G 41 16.09 Fair CLR 25 18.3 66% 26 76.17 1015.5
06 13:53 S 31 G 39 16.09 Fair CLR 25 18.3 25.6 20 66% 26 76.23 1016.3 0.2
06 12:53 S 26 16.09 Fair CLR 25 18.9 69% 26 76.25 1016.6
06 11:53 S 24 16.09 Fair CLR 25 18.3 66% 26 76.3 1017.2
06 10:53 S 20 16.09 Fair CLR 24.4 17.8 67% 25 76.3 1017.2 0.2
06 09:53 S 17 16.09 Fair CLR 24.4 16.7 62% 25 76.3 1017.1 0.2
06 08:53 S 17 16.09 Fair CLR 23.3 16.1 64% 76.28 1017.0
06 07:53 SW 9 16.09 Fair CLR 20 16.7 20 17.2 81% 76.28 1017.0 0.03
06 06:53 Calm 16.09 Fair CLR 17.2 16.1 93% 76.25 1016.5
06 05:53 W 6 16.09 Fair CLR 17.8 16.1 90% 76.25 1016.4
06 04:53 SW 9 16.09 Fair CLR 19.4 17.8 91% 76.23 1016.0 0.03 0.03
06 03:53 S 13 16.09 Fair CLR 19.4 17.2 87% 76.23 1016.0
06 02:53 S 11 16.09 Fair CLR 19.4 17.2 87% 76.2 1015.8
06 01:53 S 9 16.09 Fair CLR 18.3 16.7 21.1 18.3 90% 76.28 1016.7
06 00:53 S 7 16.09 Fair CLR 18.9 17.2 90% 76.3 1017.3
05 23:53 S 7 16.09 Fair CLR 19.4 17.2 87% 76.33 1017.6
05 22:53 SE 15 16.09 Fair CLR 20 16.1 78% 76.35 1017.8
05 21:53 S 15 16.09 Fair CLR 20 16.1 78% 76.33 1017.5
05 20:53 S 20 16.09 Fair CLR 20.6 15.6 73% 76.33 1017.4
05 19:53 S 19 16.09 Partly Cloudy SCT039 21.1 15.6 23.9 21.1 71% 76.33 1017.4
05 18:53 S 19 16.09 A Few Clouds FEW039 21.7 15.6 68% 76.3 1017.2
05 17:53 S 15 16.09 Fair CLR 22.8 15.6 64% 76.33 1017.6
05 16:53 S 19 16.09 Fair CLR 23.3 15 60% 76.33 1017.7
05 15:53 S 19 16.09 Fair CLR 22.8 15 62% 76.35 1018.0
05 14:53 SE 22 16.09 Fair CLR 23.3 15 60% 76.4 1018.6
05 13:53 S 19 16.09 Fair CLR 23.3 15 23.3 16.7 60% 76.4 1018.7
05 12:53 S 17 16.09 Fair CLR 22.8 15 62% 76.45 1019.2
05 11:53 S 17 16.09 Fair CLR 22.8 14.4 59% 76.48 1019.7
05 10:53 S 15 16.09 Fair CLR 22.8 14.4 59% 76.48 1019.5
05 09:53 S 15 16.09 Fair CLR 22.2 13.9 59% 76.45 1019.1
05 08:53 S 13 16.09 Fair CLR 21.1 14.4 66% 76.43 1019.0
05 07:53 Calm 16.09 Fair CLR 16.7 14.4 18.3 12.8 86% 76.43 1018.7
05 06:53 Calm 16.09 Fair CLR 13.9 12.8 93% 76.35 1018.0
05 05:53 Calm 16.09 Fair CLR 13.3 12.2 93% 76.33 1017.5
05 04:53 Calm 16.09 Fair CLR 14.4 12.8 90% 76.3 1017.2
05 03:53 Calm 16.09 Fair CLR 14.4 13.3 93% 76.3 1017.0
05 02:53 Calm 16.09 Fair CLR 16.7 14.4 86% 76.3 1017.1
05 01:53 S 9 16.09 Fair CLR 17.8 13.9 20 17.8 78% 76.33 1017.5
05 00:53 S 9 16.09 Fair CLR 18.9 14.4 75% 76.38 1018.1
04 23:53 S 9 16.09 Fair CLR 18.9 13.3 70% 76.35 1018.0
04 22:53 S 11 16.09 Fair CLR 18.9 13.3 70% 76.35 1018.0
04 21:53 S 19 16.09 Fair CLR 20 12.2 61% 76.35 1018.0
04 20:53 S 19 16.09 Fair CLR 20 12.2 61% 76.33 1017.5
04 19:53 S 20 16.09 Fair CLR 20 12.2 22.8 20 61% 76.3 1017.2 0.03 0.03
04 18:53 S 20 G 35 16.09 Fair CLR 21.1 11.7 55% 76.28 1017.0
04 17:53 S 28 16.09 Fair CLR 21.7 12.8 57% 76.28 1016.9
04 16:53 S 26 16.09 Fair CLR 22.2 12.8 55% 76.3 1017.2
04 15:53 S 30 16.09 Fair CLR 22.2 12.2 53% 76.33 1017.5
Date Time (edt) Wind (kph) Vis. (km) Weather Sky Cond. Air Dwpt Max. Min. Relative Humidity Wind Chill (°C) Heat Index (°C) altimeter (cm) sea level (mb) 1 hr 3 hr 6 hr
6 hour
Temperature (ºC) Pressure Precipitation (cm)